sensor_id;sensor_type;location;lat;lon;timestamp;P1;durP1;ratioP1;P2;durP2;ratioP2
22557;SDS011;11445;53.816;8.902;2024-02-04T00:00:31;11.30;;;2.25;;
22557;SDS011;11445;53.816;8.902;2024-02-04T00:02:59;18.83;;;2.78;;
22557;SDS011;11445;53.816;8.902;2024-02-04T00:05:26;18.60;;;2.42;;
22557;SDS011;11445;53.816;8.902;2024-02-04T00:07:53;16.92;;;2.50;;
22557;SDS011;11445;53.816;8.902;2024-02-04T00:10:20;17.15;;;2.80;;
22557;SDS011;11445;53.816;8.902;2024-02-04T00:12:47;15.77;;;2.25;;
22557;SDS011;11445;53.816;8.902;2024-02-04T00:15:14;17.85;;;2.35;;
22557;SDS011;11445;53.816;8.902;2024-02-04T00:17:41;19.15;;;2.58;;
22557;SDS011;11445;53.816;8.902;2024-02-04T00:20:09;18.58;;;3.08;;
22557;SDS011;11445;53.816;8.902;2024-02-04T00:22:36;16.65;;;2.50;;
22557;SDS011;11445;53.816;8.902;2024-02-04T00:25:03;17.00;;;2.92;;
22557;SDS011;11445;53.816;8.902;2024-02-04T00:27:31;10.15;;;2.33;;
22557;SDS011;11445;53.816;8.902;2024-02-04T00:29:58;16.08;;;2.83;;
22557;SDS011;11445;53.816;8.902;2024-02-04T00:32:25;17.90;;;3.20;;
22557;SDS011;11445;53.816;8.902;2024-02-04T00:34:52;18.10;;;3.00;;
22557;SDS011;11445;53.816;8.902;2024-02-04T00:37:20;15.10;;;2.53;;
22557;SDS011;11445;53.816;8.902;2024-02-04T00:39:47;15.60;;;2.60;;
22557;SDS011;11445;53.816;8.902;2024-02-04T00:42:14;17.60;;;2.20;;
22557;SDS011;11445;53.816;8.902;2024-02-04T00:44:41;12.07;;;2.42;;
22557;SDS011;11445;53.816;8.902;2024-02-04T00:47:08;16.70;;;2.72;;
22557;SDS011;11445;53.816;8.902;2024-02-04T00:49:34;18.08;;;3.10;;
22557;SDS011;11445;53.816;8.902;2024-02-04T00:52:01;15.20;;;2.70;;
22557;SDS011;11445;53.816;8.902;2024-02-04T00:54:29;9.95;;;2.10;;
22557;SDS011;11445;53.816;8.902;2024-02-04T00:56:56;10.77;;;2.42;;
22557;SDS011;11445;53.816;8.902;2024-02-04T00:59:24;12.55;;;3.03;;
22557;SDS011;11445;53.816;8.902;2024-02-04T01:01:51;14.55;;;2.00;;
22557;SDS011;11445;53.816;8.902;2024-02-04T01:04:20;17.42;;;2.95;;
22557;SDS011;11445;53.816;8.902;2024-02-04T01:06:48;24.23;;;3.22;;
22557;SDS011;11445;53.816;8.902;2024-02-04T01:09:14;16.20;;;2.83;;
22557;SDS011;11445;53.816;8.902;2024-02-04T01:11:43;14.27;;;2.38;;
22557;SDS011;11445;53.816;8.902;2024-02-04T01:14:09;11.45;;;2.10;;
22557;SDS011;11445;53.816;8.902;2024-02-04T01:16:36;12.13;;;2.08;;
22557;SDS011;11445;53.816;8.902;2024-02-04T01:19:03;10.82;;;2.60;;
22557;SDS011;11445;53.816;8.902;2024-02-04T01:21:30;14.30;;;2.90;;
22557;SDS011;11445;53.816;8.902;2024-02-04T01:23:56;9.77;;;2.78;;
22557;SDS011;11445;53.816;8.902;2024-02-04T01:26:23;14.18;;;2.15;;
22557;SDS011;11445;53.816;8.902;2024-02-04T01:28:51;14.77;;;2.20;;
22557;SDS011;11445;53.816;8.902;2024-02-04T01:31:18;6.85;;;1.58;;
22557;SDS011;11445;53.816;8.902;2024-02-04T01:33:45;11.77;;;2.60;;
22557;SDS011;11445;53.816;8.902;2024-02-04T01:36:12;17.40;;;2.63;;
22557;SDS011;11445;53.816;8.902;2024-02-04T01:38:39;15.13;;;3.13;;
22557;SDS011;11445;53.816;8.902;2024-02-04T01:41:05;13.18;;;2.17;;
22557;SDS011;11445;53.816;8.902;2024-02-04T01:43:32;15.73;;;2.33;;
22557;SDS011;11445;53.816;8.902;2024-02-04T01:46:00;12.93;;;1.83;;
22557;SDS011;11445;53.816;8.902;2024-02-04T01:48:27;14.50;;;2.35;;
22557;SDS011;11445;53.816;8.902;2024-02-04T01:50:54;14.13;;;1.73;;
22557;SDS011;11445;53.816;8.902;2024-02-04T01:53:24;11.18;;;2.35;;
22557;SDS011;11445;53.816;8.902;2024-02-04T01:55:54;16.13;;;2.30;;
22557;SDS011;11445;53.816;8.902;2024-02-04T01:58:21;20.15;;;2.95;;
22557;SDS011;11445;53.816;8.902;2024-02-04T02:00:49;11.07;;;2.08;;
22557;SDS011;11445;53.816;8.902;2024-02-04T02:03:19;9.43;;;2.22;;
22557;SDS011;11445;53.816;8.902;2024-02-04T02:05:47;14.50;;;2.22;;
22557;SDS011;11445;53.816;8.902;2024-02-04T02:08:13;11.80;;;2.55;;
22557;SDS011;11445;53.816;8.902;2024-02-04T02:10:41;18.15;;;2.67;;
22557;SDS011;11445;53.816;8.902;2024-02-04T02:13:14;13.63;;;1.98;;
22557;SDS011;11445;53.816;8.902;2024-02-04T02:15:48;16.40;;;2.70;;
22557;SDS011;11445;53.816;8.902;2024-02-04T02:18:21;13.10;;;2.17;;
22557;SDS011;11445;53.816;8.902;2024-02-04T02:20:55;8.93;;;2.50;;
22557;SDS011;11445;53.816;8.902;2024-02-04T02:23:40;15.75;;;2.00;;
22557;SDS011;11445;53.816;8.902;2024-02-04T02:26:21;12.65;;;1.90;;
22557;SDS011;11445;53.816;8.902;2024-02-04T02:28:49;15.00;;;2.97;;
22557;SDS011;11445;53.816;8.902;2024-02-04T02:31:15;11.20;;;2.15;;
22557;SDS011;11445;53.816;8.902;2024-02-04T02:33:42;16.20;;;2.55;;
22557;SDS011;11445;53.816;8.902;2024-02-04T02:36:10;9.55;;;1.95;;
22557;SDS011;11445;53.816;8.902;2024-02-04T02:38:41;15.85;;;2.40;;
22557;SDS011;11445;53.816;8.902;2024-02-04T02:41:14;17.90;;;2.08;;
22557;SDS011;11445;53.816;8.902;2024-02-04T02:43:44;20.80;;;2.47;;
22557;SDS011;11445;53.816;8.902;2024-02-04T02:46:12;11.15;;;2.53;;
22557;SDS011;11445;53.816;8.902;2024-02-04T02:48:39;6.35;;;1.67;;
22557;SDS011;11445;53.816;8.902;2024-02-04T02:51:07;16.55;;;2.50;;
22557;SDS011;11445;53.816;8.902;2024-02-04T02:53:34;14.88;;;2.88;;
22557;SDS011;11445;53.816;8.902;2024-02-04T02:56:00;19.35;;;2.40;;
22557;SDS011;11445;53.816;8.902;2024-02-04T02:58:27;11.98;;;2.22;;
22557;SDS011;11445;53.816;8.902;2024-02-04T03:00:55;24.95;;;2.65;;
22557;SDS011;11445;53.816;8.902;2024-02-04T03:03:22;12.38;;;2.25;;
22557;SDS011;11445;53.816;8.902;2024-02-04T03:05:49;17.90;;;2.22;;
22557;SDS011;11445;53.816;8.902;2024-02-04T03:08:16;15.45;;;2.08;;
22557;SDS011;11445;53.816;8.902;2024-02-04T03:10:43;9.77;;;2.30;;
22557;SDS011;11445;53.816;8.902;2024-02-04T03:13:09;18.00;;;2.63;;
22557;SDS011;11445;53.816;8.902;2024-02-04T03:15:36;17.33;;;2.47;;
22557;SDS011;11445;53.816;8.902;2024-02-04T03:18:04;22.02;;;3.33;;
22557;SDS011;11445;53.816;8.902;2024-02-04T03:20:31;19.73;;;2.50;;
22557;SDS011;11445;53.816;8.902;2024-02-04T03:22:58;16.58;;;2.83;;
22557;SDS011;11445;53.816;8.902;2024-02-04T03:25:25;14.65;;;2.67;;
22557;SDS011;11445;53.816;8.902;2024-02-04T03:27:54;24.52;;;3.30;;
22557;SDS011;11445;53.816;8.902;2024-02-04T03:30:21;23.73;;;2.90;;
22557;SDS011;11445;53.816;8.902;2024-02-04T03:32:47;15.25;;;3.33;;
22557;SDS011;11445;53.816;8.902;2024-02-04T03:35:15;18.45;;;3.55;;
22557;SDS011;11445;53.816;8.902;2024-02-04T03:37:42;18.48;;;3.30;;
22557;SDS011;11445;53.816;8.902;2024-02-04T03:40:10;18.17;;;2.55;;
22557;SDS011;11445;53.816;8.902;2024-02-04T03:42:37;14.75;;;2.75;;
22557;SDS011;11445;53.816;8.902;2024-02-04T03:45:05;18.17;;;2.53;;
22557;SDS011;11445;53.816;8.902;2024-02-04T03:47:33;20.70;;;2.47;;
22557;SDS011;11445;53.816;8.902;2024-02-04T03:50:00;15.05;;;2.25;;
22557;SDS011;11445;53.816;8.902;2024-02-04T03:52:29;17.38;;;3.05;;
22557;SDS011;11445;53.816;8.902;2024-02-04T03:54:56;18.83;;;2.88;;
22557;SDS011;11445;53.816;8.902;2024-02-04T03:57:24;15.40;;;2.70;;
22557;SDS011;11445;53.816;8.902;2024-02-04T03:59:51;23.48;;;3.20;;
22557;SDS011;11445;53.816;8.902;2024-02-04T04:02:18;20.90;;;3.03;;
22557;SDS011;11445;53.816;8.902;2024-02-04T04:04:44;19.73;;;3.17;;
22557;SDS011;11445;53.816;8.902;2024-02-04T04:07:12;21.60;;;3.65;;
22557;SDS011;11445;53.816;8.902;2024-02-04T04:09:40;19.08;;;3.10;;
22557;SDS011;11445;53.816;8.902;2024-02-04T04:12:07;13.60;;;2.80;;
22557;SDS011;11445;53.816;8.902;2024-02-04T04:14:34;22.70;;;3.13;;
22557;SDS011;11445;53.816;8.902;2024-02-04T04:17:01;17.38;;;2.90;;
22557;SDS011;11445;53.816;8.902;2024-02-04T04:19:28;26.05;;;3.72;;
22557;SDS011;11445;53.816;8.902;2024-02-04T04:21:55;18.15;;;3.00;;
22557;SDS011;11445;53.816;8.902;2024-02-04T04:24:22;16.63;;;3.15;;
22557;SDS011;11445;53.816;8.902;2024-02-04T04:26:50;18.73;;;3.05;;
22557;SDS011;11445;53.816;8.902;2024-02-04T04:29:16;12.68;;;2.60;;
22557;SDS011;11445;53.816;8.902;2024-02-04T04:31:43;16.17;;;3.08;;
22557;SDS011;11445;53.816;8.902;2024-02-04T04:34:11;17.02;;;3.35;;
22557;SDS011;11445;53.816;8.902;2024-02-04T04:36:38;12.50;;;2.90;;
22557;SDS011;11445;53.816;8.902;2024-02-04T04:39:05;19.25;;;3.40;;
22557;SDS011;11445;53.816;8.902;2024-02-04T04:41:32;18.90;;;3.20;;
22557;SDS011;11445;53.816;8.902;2024-02-04T04:44:00;26.10;;;3.83;;
22557;SDS011;11445;53.816;8.902;2024-02-04T04:46:27;26.67;;;3.88;;
22557;SDS011;11445;53.816;8.902;2024-02-04T04:48:53;18.65;;;3.33;;
22557;SDS011;11445;53.816;8.902;2024-02-04T04:51:23;16.38;;;2.42;;
22557;SDS011;11445;53.816;8.902;2024-02-04T04:53:49;16.25;;;3.08;;
22557;SDS011;11445;53.816;8.902;2024-02-04T04:56:16;19.17;;;3.42;;
22557;SDS011;11445;53.816;8.902;2024-02-04T04:58:43;19.45;;;2.65;;
22557;SDS011;11445;53.816;8.902;2024-02-04T05:01:11;19.08;;;3.20;;
22557;SDS011;11445;53.816;8.902;2024-02-04T05:03:39;21.48;;;2.85;;
22557;SDS011;11445;53.816;8.902;2024-02-04T05:06:06;26.30;;;3.08;;
22557;SDS011;11445;53.816;8.902;2024-02-04T05:08:33;16.40;;;3.55;;
22557;SDS011;11445;53.816;8.902;2024-02-04T05:11:00;36.30;;;3.83;;
22557;SDS011;11445;53.816;8.902;2024-02-04T05:13:27;23.83;;;3.13;;
22557;SDS011;11445;53.816;8.902;2024-02-04T05:15:53;21.33;;;3.60;;
22557;SDS011;11445;53.816;8.902;2024-02-04T05:18:21;15.32;;;2.72;;
22557;SDS011;11445;53.816;8.902;2024-02-04T05:20:51;24.08;;;3.17;;
22557;SDS011;11445;53.816;8.902;2024-02-04T05:23:18;26.08;;;3.22;;
22557;SDS011;11445;53.816;8.902;2024-02-04T05:25:45;21.25;;;3.28;;
22557;SDS011;11445;53.816;8.902;2024-02-04T05:28:12;21.60;;;3.13;;
22557;SDS011;11445;53.816;8.902;2024-02-04T05:30:39;21.95;;;3.05;;
22557;SDS011;11445;53.816;8.902;2024-02-04T05:33:06;24.48;;;3.42;;
22557;SDS011;11445;53.816;8.902;2024-02-04T05:35:34;33.05;;;5.22;;
22557;SDS011;11445;53.816;8.902;2024-02-04T05:38:03;23.02;;;3.38;;
22557;SDS011;11445;53.816;8.902;2024-02-04T05:40:30;22.00;;;3.42;;
22557;SDS011;11445;53.816;8.902;2024-02-04T05:42:56;21.63;;;2.78;;
22557;SDS011;11445;53.816;8.902;2024-02-04T05:45:23;21.60;;;4.45;;
22557;SDS011;11445;53.816;8.902;2024-02-04T05:47:50;22.70;;;3.17;;
22557;SDS011;11445;53.816;8.902;2024-02-04T05:50:17;20.77;;;3.47;;
22557;SDS011;11445;53.816;8.902;2024-02-04T05:52:45;22.23;;;3.10;;
22557;SDS011;11445;53.816;8.902;2024-02-04T05:55:12;29.05;;;3.60;;
22557;SDS011;11445;53.816;8.902;2024-02-04T05:57:39;24.35;;;3.75;;
22557;SDS011;11445;53.816;8.902;2024-02-04T06:00:06;24.77;;;3.45;;
22557;SDS011;11445;53.816;8.902;2024-02-04T06:02:35;23.38;;;3.53;;
22557;SDS011;11445;53.816;8.902;2024-02-04T06:05:04;38.45;;;4.55;;
22557;SDS011;11445;53.816;8.902;2024-02-04T06:07:31;24.33;;;4.25;;
22557;SDS011;11445;53.816;8.902;2024-02-04T06:10:00;31.63;;;3.92;;
22557;SDS011;11445;53.816;8.902;2024-02-04T06:12:28;23.10;;;3.75;;
22557;SDS011;11445;53.816;8.902;2024-02-04T06:14:55;19.92;;;3.50;;
22557;SDS011;11445;53.816;8.902;2024-02-04T06:17:22;19.75;;;2.72;;
22557;SDS011;11445;53.816;8.902;2024-02-04T06:19:49;22.65;;;4.50;;
22557;SDS011;11445;53.816;8.902;2024-02-04T06:22:15;24.30;;;3.45;;
22557;SDS011;11445;53.816;8.902;2024-02-04T06:24:42;26.73;;;3.45;;
22557;SDS011;11445;53.816;8.902;2024-02-04T06:27:10;30.05;;;4.65;;
22557;SDS011;11445;53.816;8.902;2024-02-04T06:29:37;27.77;;;3.65;;
22557;SDS011;11445;53.816;8.902;2024-02-04T06:32:05;34.95;;;5.45;;
22557;SDS011;11445;53.816;8.902;2024-02-04T06:34:32;30.75;;;3.13;;
22557;SDS011;11445;53.816;8.902;2024-02-04T06:36:58;26.98;;;4.10;;
22557;SDS011;11445;53.816;8.902;2024-02-04T06:39:25;20.35;;;3.58;;
22557;SDS011;11445;53.816;8.902;2024-02-04T06:41:52;24.50;;;3.88;;
22557;SDS011;11445;53.816;8.902;2024-02-04T06:44:20;23.52;;;4.13;;
22557;SDS011;11445;53.816;8.902;2024-02-04T06:46:47;33.40;;;4.47;;
22557;SDS011;11445;53.816;8.902;2024-02-04T06:49:14;27.65;;;4.65;;
22557;SDS011;11445;53.816;8.902;2024-02-04T06:51:43;25.58;;;3.83;;
22557;SDS011;11445;53.816;8.902;2024-02-04T06:54:10;25.60;;;3.35;;
22557;SDS011;11445;53.816;8.902;2024-02-04T06:56:37;22.48;;;3.08;;
22557;SDS011;11445;53.816;8.902;2024-02-04T06:59:04;31.25;;;3.42;;
22557;SDS011;11445;53.816;8.902;2024-02-04T07:01:32;29.05;;;4.72;;
22557;SDS011;11445;53.816;8.902;2024-02-04T07:03:59;25.75;;;4.47;;
22557;SDS011;11445;53.816;8.902;2024-02-04T07:06:26;28.77;;;3.80;;
22557;SDS011;11445;53.816;8.902;2024-02-04T07:08:53;33.72;;;4.47;;
22557;SDS011;11445;53.816;8.902;2024-02-04T07:11:20;24.35;;;3.88;;
22557;SDS011;11445;53.816;8.902;2024-02-04T07:13:47;26.48;;;4.43;;
22557;SDS011;11445;53.816;8.902;2024-02-04T07:16:13;28.90;;;3.58;;
22557;SDS011;11445;53.816;8.902;2024-02-04T07:18:41;27.98;;;3.63;;
22557;SDS011;11445;53.816;8.902;2024-02-04T07:21:08;23.63;;;3.85;;
22557;SDS011;11445;53.816;8.902;2024-02-04T07:23:35;21.83;;;3.03;;
22557;SDS011;11445;53.816;8.902;2024-02-04T07:26:02;15.80;;;3.17;;
22557;SDS011;11445;53.816;8.902;2024-02-04T07:28:28;28.38;;;4.40;;
22557;SDS011;11445;53.816;8.902;2024-02-04T07:30:55;25.33;;;3.75;;
22557;SDS011;11445;53.816;8.902;2024-02-04T07:33:22;17.10;;;3.00;;
22557;SDS011;11445;53.816;8.902;2024-02-04T07:35:50;23.13;;;3.65;;
22557;SDS011;11445;53.816;8.902;2024-02-04T07:38:17;23.95;;;3.45;;
22557;SDS011;11445;53.816;8.902;2024-02-04T07:40:44;21.33;;;3.63;;
22557;SDS011;11445;53.816;8.902;2024-02-04T07:43:11;13.13;;;3.28;;
22557;SDS011;11445;53.816;8.902;2024-02-04T07:45:38;26.80;;;3.80;;
22557;SDS011;11445;53.816;8.902;2024-02-04T07:48:05;27.77;;;3.30;;
22557;SDS011;11445;53.816;8.902;2024-02-04T07:50:34;19.05;;;3.03;;
22557;SDS011;11445;53.816;8.902;2024-02-04T07:53:02;16.88;;;3.47;;
22557;SDS011;11445;53.816;8.902;2024-02-04T07:55:29;29.65;;;4.00;;
22557;SDS011;11445;53.816;8.902;2024-02-04T07:57:56;15.55;;;3.47;;
22557;SDS011;11445;53.816;8.902;2024-02-04T08:00:23;30.33;;;3.60;;
22557;SDS011;11445;53.816;8.902;2024-02-04T08:02:50;21.63;;;4.32;;
22557;SDS011;11445;53.816;8.902;2024-02-04T08:05:17;29.27;;;4.00;;
22557;SDS011;11445;53.816;8.902;2024-02-04T08:07:43;33.30;;;4.10;;
22557;SDS011;11445;53.816;8.902;2024-02-04T08:10:12;22.77;;;3.80;;
22557;SDS011;11445;53.816;8.902;2024-02-04T08:12:40;30.98;;;3.72;;
22557;SDS011;11445;53.816;8.902;2024-02-04T08:15:07;28.50;;;3.85;;
22557;SDS011;11445;53.816;8.902;2024-02-04T08:17:35;22.63;;;3.78;;
22557;SDS011;11445;53.816;8.902;2024-02-04T08:20:02;17.80;;;3.88;;
22557;SDS011;11445;53.816;8.902;2024-02-04T08:22:30;26.20;;;4.20;;
22557;SDS011;11445;53.816;8.902;2024-02-04T08:24:56;27.00;;;3.60;;
22557;SDS011;11445;53.816;8.902;2024-02-04T08:27:24;28.17;;;3.58;;
22557;SDS011;11445;53.816;8.902;2024-02-04T08:29:51;30.85;;;3.40;;
22557;SDS011;11445;53.816;8.902;2024-02-04T08:32:18;32.17;;;5.18;;
22557;SDS011;11445;53.816;8.902;2024-02-04T08:34:45;20.05;;;4.07;;
22557;SDS011;11445;53.816;8.902;2024-02-04T08:37:12;26.63;;;3.90;;
22557;SDS011;11445;53.816;8.902;2024-02-04T08:39:38;25.05;;;4.35;;
22557;SDS011;11445;53.816;8.902;2024-02-04T08:42:05;29.48;;;4.32;;
22557;SDS011;11445;53.816;8.902;2024-02-04T08:44:33;28.60;;;3.83;;
22557;SDS011;11445;53.816;8.902;2024-02-04T08:47:00;21.40;;;3.92;;
22557;SDS011;11445;53.816;8.902;2024-02-04T08:49:27;28.98;;;3.92;;
22557;SDS011;11445;53.816;8.902;2024-02-04T08:51:55;30.73;;;4.63;;
22557;SDS011;11445;53.816;8.902;2024-02-04T08:54:22;39.85;;;4.53;;
22557;SDS011;11445;53.816;8.902;2024-02-04T08:56:49;25.63;;;4.20;;
22557;SDS011;11445;53.816;8.902;2024-02-04T08:59:15;24.50;;;3.92;;
22557;SDS011;11445;53.816;8.902;2024-02-04T09:01:44;33.35;;;5.18;;
22557;SDS011;11445;53.816;8.902;2024-02-04T09:04:10;23.23;;;4.10;;
22557;SDS011;11445;53.816;8.902;2024-02-04T09:06:37;31.05;;;4.70;;
22557;SDS011;11445;53.816;8.902;2024-02-04T09:09:04;25.88;;;4.93;;
22557;SDS011;11445;53.816;8.902;2024-02-04T09:11:33;26.63;;;4.07;;
22557;SDS011;11445;53.816;8.902;2024-02-04T09:13:59;24.27;;;3.95;;
22557;SDS011;11445;53.816;8.902;2024-02-04T09:16:27;30.98;;;3.90;;
22557;SDS011;11445;53.816;8.902;2024-02-04T09:18:55;23.13;;;3.75;;
22557;SDS011;11445;53.816;8.902;2024-02-04T09:21:22;25.13;;;3.65;;
22557;SDS011;11445;53.816;8.902;2024-02-04T09:23:49;25.52;;;4.15;;
22557;SDS011;11445;53.816;8.902;2024-02-04T09:26:16;18.50;;;4.38;;
22557;SDS011;11445;53.816;8.902;2024-02-04T09:28:43;33.47;;;5.05;;
22557;SDS011;11445;53.816;8.902;2024-02-04T09:31:09;24.38;;;4.38;;
22557;SDS011;11445;53.816;8.902;2024-02-04T09:33:36;19.48;;;3.97;;
22557;SDS011;11445;53.816;8.902;2024-02-04T09:36:07;24.08;;;3.80;;
22557;SDS011;11445;53.816;8.902;2024-02-04T09:38:34;33.03;;;5.50;;
22557;SDS011;11445;53.816;8.902;2024-02-04T09:41:01;32.80;;;4.75;;
22557;SDS011;11445;53.816;8.902;2024-02-04T09:43:29;28.90;;;4.80;;
22557;SDS011;11445;53.816;8.902;2024-02-04T09:45:58;29.20;;;4.93;;
22557;SDS011;11445;53.816;8.902;2024-02-04T09:48:25;27.40;;;3.88;;
22557;SDS011;11445;53.816;8.902;2024-02-04T09:50:55;24.42;;;3.55;;
22557;SDS011;11445;53.816;8.902;2024-02-04T09:53:26;35.08;;;4.95;;
22557;SDS011;11445;53.816;8.902;2024-02-04T09:55:58;33.45;;;5.68;;
22557;SDS011;11445;53.816;8.902;2024-02-04T09:58:27;29.02;;;4.93;;
22557;SDS011;11445;53.816;8.902;2024-02-04T10:00:54;27.83;;;4.60;;
22557;SDS011;11445;53.816;8.902;2024-02-04T10:03:21;31.70;;;4.80;;
22557;SDS011;11445;53.816;8.902;2024-02-04T10:05:48;29.17;;;4.60;;
22557;SDS011;11445;53.816;8.902;2024-02-04T10:08:15;30.35;;;5.20;;
22557;SDS011;11445;53.816;8.902;2024-02-04T10:10:43;22.35;;;4.38;;
22557;SDS011;11445;53.816;8.902;2024-02-04T10:13:10;38.78;;;5.38;;
22557;SDS011;11445;53.816;8.902;2024-02-04T10:15:37;31.73;;;5.82;;
22557;SDS011;11445;53.816;8.902;2024-02-04T10:18:04;19.38;;;4.45;;
22557;SDS011;11445;53.816;8.902;2024-02-04T10:20:32;24.40;;;3.85;;
22557;SDS011;11445;53.816;8.902;2024-02-04T10:22:59;30.13;;;4.85;;
22557;SDS011;11445;53.816;8.902;2024-02-04T10:25:26;30.85;;;4.90;;
22557;SDS011;11445;53.816;8.902;2024-02-04T10:27:55;29.15;;;5.15;;
22557;SDS011;11445;53.816;8.902;2024-02-04T10:30:23;27.33;;;4.90;;
22557;SDS011;11445;53.816;8.902;2024-02-04T10:32:50;28.77;;;4.82;;
22557;SDS011;11445;53.816;8.902;2024-02-04T10:35:17;21.02;;;4.18;;
22557;SDS011;11445;53.816;8.902;2024-02-04T10:37:45;19.13;;;4.03;;
22557;SDS011;11445;53.816;8.902;2024-02-04T10:40:12;38.53;;;5.20;;
22557;SDS011;11445;53.816;8.902;2024-02-04T10:42:39;25.38;;;4.57;;
22557;SDS011;11445;53.816;8.902;2024-02-04T10:45:10;29.13;;;3.75;;
22557;SDS011;11445;53.816;8.902;2024-02-04T10:47:40;27.20;;;4.97;;
22557;SDS011;11445;53.816;8.902;2024-02-04T10:50:07;20.27;;;4.07;;
22557;SDS011;11445;53.816;8.902;2024-02-04T10:52:35;22.73;;;4.22;;
22557;SDS011;11445;53.816;8.902;2024-02-04T10:55:05;25.52;;;4.43;;
22557;SDS011;11445;53.816;8.902;2024-02-04T10:57:34;26.95;;;4.32;;
22557;SDS011;11445;53.816;8.902;2024-02-04T11:00:02;26.27;;;4.15;;
22557;SDS011;11445;53.816;8.902;2024-02-04T11:02:35;25.08;;;5.07;;
22557;SDS011;11445;53.816;8.902;2024-02-04T11:05:02;31.38;;;4.05;;
22557;SDS011;11445;53.816;8.902;2024-02-04T11:07:31;27.00;;;4.70;;
22557;SDS011;11445;53.816;8.902;2024-02-04T11:09:59;24.17;;;4.38;;
22557;SDS011;11445;53.816;8.902;2024-02-04T11:12:27;25.75;;;4.10;;
22557;SDS011;11445;53.816;8.902;2024-02-04T11:14:56;34.08;;;4.18;;
22557;SDS011;11445;53.816;8.902;2024-02-04T11:17:46;31.90;;;4.40;;
22557;SDS011;11445;53.816;8.902;2024-02-04T11:20:51;32.70;;;4.05;;
22557;SDS011;11445;53.816;8.902;2024-02-04T11:26:10;24.10;;;4.40;;
22557;SDS011;11445;53.816;8.902;2024-02-04T11:28:38;20.70;;;3.72;;
22557;SDS011;11445;53.816;8.902;2024-02-04T11:31:09;26.60;;;4.07;;
22557;SDS011;11445;53.816;8.902;2024-02-04T11:33:42;29.50;;;5.53;;
22557;SDS011;11445;53.816;8.902;2024-02-04T11:36:12;31.50;;;4.35;;
22557;SDS011;11445;53.816;8.902;2024-02-04T11:38:40;22.77;;;3.97;;
22557;SDS011;11445;53.816;8.902;2024-02-04T11:41:07;27.00;;;3.63;;
22557;SDS011;11445;53.816;8.902;2024-02-04T11:43:34;28.92;;;4.88;;
22557;SDS011;11445;53.816;8.902;2024-02-04T11:46:02;30.77;;;5.28;;
22557;SDS011;11445;53.816;8.902;2024-02-04T11:48:30;18.50;;;4.20;;
22557;SDS011;11445;53.816;8.902;2024-02-04T11:51:00;28.55;;;4.93;;
22557;SDS011;11445;53.816;8.902;2024-02-04T11:53:27;23.25;;;4.47;;
22557;SDS011;11445;53.816;8.902;2024-02-04T11:55:57;32.08;;;5.68;;
22557;SDS011;11445;53.816;8.902;2024-02-04T11:58:26;26.92;;;3.95;;
22557;SDS011;11445;53.816;8.902;2024-02-04T12:00:53;31.23;;;4.47;;
22557;SDS011;11445;53.816;8.902;2024-02-04T12:03:29;25.00;;;4.15;;
22557;SDS011;11445;53.816;8.902;2024-02-04T12:05:56;27.08;;;4.57;;
22557;SDS011;11445;53.816;8.902;2024-02-04T12:08:25;31.65;;;4.38;;
22557;SDS011;11445;53.816;8.902;2024-02-04T12:10:53;25.02;;;4.38;;
22557;SDS011;11445;53.816;8.902;2024-02-04T12:13:21;31.73;;;4.72;;
22557;SDS011;11445;53.816;8.902;2024-02-04T12:15:48;34.13;;;5.20;;
22557;SDS011;11445;53.816;8.902;2024-02-04T12:18:15;29.33;;;4.25;;
22557;SDS011;11445;53.816;8.902;2024-02-04T12:20:45;32.05;;;4.57;;
22557;SDS011;11445;53.816;8.902;2024-02-04T12:23:13;34.88;;;4.97;;
22557;SDS011;11445;53.816;8.902;2024-02-04T12:25:42;33.38;;;5.22;;
22557;SDS011;11445;53.816;8.902;2024-02-04T12:28:09;24.52;;;4.72;;
22557;SDS011;11445;53.816;8.902;2024-02-04T12:30:35;38.92;;;5.25;;
22557;SDS011;11445;53.816;8.902;2024-02-04T12:33:03;37.22;;;4.47;;
22557;SDS011;11445;53.816;8.902;2024-02-04T12:35:31;30.35;;;4.55;;
22557;SDS011;11445;53.816;8.902;2024-02-04T12:37:59;37.03;;;5.60;;
22557;SDS011;11445;53.816;8.902;2024-02-04T12:40:26;29.42;;;4.45;;
22557;SDS011;11445;53.816;8.902;2024-02-04T12:42:56;32.22;;;4.68;;
22557;SDS011;11445;53.816;8.902;2024-02-04T12:45:25;29.67;;;6.10;;
22557;SDS011;11445;53.816;8.902;2024-02-04T12:47:52;28.90;;;4.80;;
22557;SDS011;11445;53.816;8.902;2024-02-04T12:50:20;27.10;;;3.63;;
22557;SDS011;11445;53.816;8.902;2024-02-04T12:52:48;30.70;;;5.13;;
22557;SDS011;11445;53.816;8.902;2024-02-04T12:55:19;31.08;;;4.03;;
22557;SDS011;11445;53.816;8.902;2024-02-04T12:57:48;24.60;;;4.40;;
22557;SDS011;11445;53.816;8.902;2024-02-04T13:00:18;31.67;;;5.32;;
22557;SDS011;11445;53.816;8.902;2024-02-04T13:02:48;32.60;;;4.47;;
22557;SDS011;11445;53.816;8.902;2024-02-04T13:05:22;30.63;;;4.45;;
22557;SDS011;11445;53.816;8.902;2024-02-04T13:07:54;31.48;;;4.20;;
22557;SDS011;11445;53.816;8.902;2024-02-04T13:10:22;29.80;;;4.55;;
22557;SDS011;11445;53.816;8.902;2024-02-04T13:12:59;29.90;;;3.88;;
22557;SDS011;11445;53.816;8.902;2024-02-04T13:15:29;22.40;;;4.65;;
22557;SDS011;11445;53.816;8.902;2024-02-04T13:17:56;40.47;;;5.18;;
22557;SDS011;11445;53.816;8.902;2024-02-04T13:20:24;37.42;;;5.00;;
22557;SDS011;11445;53.816;8.902;2024-02-04T13:22:51;28.95;;;4.43;;
22557;SDS011;11445;53.816;8.902;2024-02-04T13:25:18;39.17;;;5.38;;
22557;SDS011;11445;53.816;8.902;2024-02-04T13:27:45;25.58;;;6.45;;
22557;SDS011;11445;53.816;8.902;2024-02-04T13:30:13;31.33;;;4.80;;
22557;SDS011;11445;53.816;8.902;2024-02-04T13:32:42;26.85;;;4.68;;
22557;SDS011;11445;53.816;8.902;2024-02-04T13:35:09;36.85;;;5.07;;
22557;SDS011;11445;53.816;8.902;2024-02-04T13:37:36;27.98;;;5.03;;
22557;SDS011;11445;53.816;8.902;2024-02-04T13:40:06;27.27;;;4.50;;
22557;SDS011;11445;53.816;8.902;2024-02-04T13:42:35;30.08;;;5.82;;
22557;SDS011;11445;53.816;8.902;2024-02-04T13:45:02;28.52;;;4.90;;
22557;SDS011;11445;53.816;8.902;2024-02-04T13:47:29;35.88;;;5.63;;
22557;SDS011;11445;53.816;8.902;2024-02-04T13:49:58;31.20;;;5.93;;
22557;SDS011;11445;53.816;8.902;2024-02-04T13:52:24;31.25;;;5.57;;
22557;SDS011;11445;53.816;8.902;2024-02-04T13:54:51;30.70;;;4.72;;
22557;SDS011;11445;53.816;8.902;2024-02-04T13:57:18;24.63;;;4.90;;
22557;SDS011;11445;53.816;8.902;2024-02-04T13:59:45;18.33;;;3.38;;
22557;SDS011;11445;53.816;8.902;2024-02-04T14:02:12;28.73;;;4.95;;
22557;SDS011;11445;53.816;8.902;2024-02-04T14:04:38;41.08;;;5.63;;
22557;SDS011;11445;53.816;8.902;2024-02-04T14:07:07;25.15;;;4.10;;
22557;SDS011;11445;53.816;8.902;2024-02-04T14:09:35;43.78;;;5.78;;
22557;SDS011;11445;53.816;8.902;2024-02-04T14:12:02;44.08;;;5.97;;
22557;SDS011;11445;53.816;8.902;2024-02-04T14:14:29;44.95;;;5.88;;
22557;SDS011;11445;53.816;8.902;2024-02-04T14:16:56;26.08;;;4.75;;
22557;SDS011;11445;53.816;8.902;2024-02-04T14:19:23;46.67;;;5.20;;
22557;SDS011;11445;53.816;8.902;2024-02-04T14:21:50;31.80;;;5.20;;
22557;SDS011;11445;53.816;8.902;2024-02-04T14:24:18;48.40;;;5.63;;
22557;SDS011;11445;53.816;8.902;2024-02-04T14:26:45;33.00;;;4.32;;
22557;SDS011;11445;53.816;8.902;2024-02-04T14:29:12;27.23;;;4.55;;
22557;SDS011;11445;53.816;8.902;2024-02-04T14:31:40;43.45;;;5.50;;
22557;SDS011;11445;53.816;8.902;2024-02-04T14:34:08;29.85;;;4.45;;
22557;SDS011;11445;53.816;8.902;2024-02-04T14:36:35;35.30;;;5.60;;
22557;SDS011;11445;53.816;8.902;2024-02-04T14:39:02;30.80;;;4.78;;
22557;SDS011;11445;53.816;8.902;2024-02-04T14:41:32;27.98;;;4.78;;